createdAt,value
2023-05-01T00:00:20.926Z,12.52
2023-05-01T00:06:24.620Z,13.07
2023-05-01T00:12:28.088Z,12.90
2023-05-01T00:18:33.239Z,13.73
2023-05-01T00:24:36.795Z,12.88
2023-05-01T00:30:40.892Z,12.50
2023-05-01T00:36:46.445Z,13.30
2023-05-01T00:42:51.359Z,14.00
2023-05-01T00:48:54.798Z,14.85
2023-05-01T00:54:59.931Z,16.00
2023-05-01T01:01:05.397Z,13.38
2023-05-01T01:07:11.804Z,14.00
2023-05-01T01:13:21.064Z,13.45
2023-05-01T01:19:39.423Z,15.13
2023-05-01T01:25:58.075Z,16.83
2023-05-01T01:32:05.740Z,15.50
2023-05-01T01:38:15.132Z,18.27
2023-05-01T01:44:21.283Z,17.88
2023-05-01T01:50:26.707Z,16.58
2023-05-01T01:56:33.183Z,18.92
2023-05-01T02:02:37.991Z,20.80
2023-05-01T02:08:41.771Z,21.95
2023-05-01T02:14:47.440Z,25.58
2023-05-01T02:20:51.447Z,25.98
2023-05-01T02:26:56.539Z,25.67
2023-05-01T02:33:01.441Z,26.23
2023-05-01T02:39:04.981Z,24.70
2023-05-01T02:45:09.959Z,25.13
2023-05-01T02:51:15.008Z,23.98
2023-05-01T02:57:20.349Z,25.02
2023-05-01T03:03:23.917Z,25.23
2023-05-01T03:09:28.721Z,29.70
2023-05-01T03:15:32.648Z,25.52
2023-05-01T03:21:37.086Z,29.23
2023-05-01T03:27:41.883Z,26.55
2023-05-01T03:33:45.452Z,27.20
2023-05-01T03:39:49.072Z,29.90
2023-05-01T03:45:53.909Z,24.30
2023-05-01T03:51:57.986Z,27.88
2023-05-01T03:58:01.387Z,25.27
2023-05-01T04:04:06.346Z,26.85
2023-05-01T04:10:10.687Z,26.65
2023-05-01T04:16:14.348Z,20.88
2023-05-01T04:22:19.626Z,11.65
2023-05-01T04:28:23.108Z,24.35
2023-05-01T04:34:29.415Z,21.75
2023-05-01T04:40:34.548Z,25.38
2023-05-01T04:46:37.965Z,25.35
2023-05-01T04:52:41.508Z,25.50
2023-05-01T04:58:46.319Z,27.55
2023-05-01T05:04:50.195Z,27.17
2023-05-01T05:10:58.280Z,22.42
2023-05-01T05:17:03.316Z,23.45
2023-05-01T05:23:08.272Z,24.55
2023-05-01T05:29:12.217Z,18.08
2023-05-01T05:35:17.157Z,24.23
2023-05-01T05:41:20.637Z,28.15
2023-05-01T05:47:24.092Z,25.02
2023-05-01T05:53:28.862Z,24.10
2023-05-01T05:59:32.567Z,26.65
2023-05-01T06:05:36.036Z,12.68
2023-05-01T06:11:40.806Z,15.35
2023-05-01T06:17:44.338Z,14.38
2023-05-01T06:23:47.812Z,16.73
2023-05-01T06:29:52.871Z,10.25
2023-05-01T06:35:59.708Z,20.50
2023-05-01T06:42:03.442Z,17.20
2023-05-01T06:48:08.539Z,21.60
2023-05-01T06:54:12.361Z,9.82
2023-05-01T07:00:17.856Z,21.50
2023-05-01T07:06:22.934Z,19.13
2023-05-01T07:12:26.851Z,15.90
2023-05-01T07:18:30.432Z,17.60
2023-05-01T07:24:35.418Z,16.75
2023-05-01T07:30:38.832Z,9.30
2023-05-01T07:36:42.707Z,14.65
2023-05-01T07:42:47.596Z,20.85
2023-05-01T07:48:51.008Z,15.18
2023-05-01T07:54:54.508Z,20.75
2023-05-01T08:00:59.286Z,20.98
2023-05-01T08:07:02.940Z,12.23
2023-05-01T08:13:06.341Z,11.10
2023-05-01T08:19:11.234Z,11.38
2023-05-01T08:25:14.754Z,11.20
2023-05-01T08:31:19.480Z,12.70
2023-05-01T08:37:24.357Z,10.80
2023-05-01T08:43:28.639Z,11.00
2023-05-01T08:49:34.697Z,10.48
2023-05-01T08:55:40.637Z,11.68
2023-05-01T09:01:44.547Z,12.48
2023-05-01T09:07:48.745Z,12.63
2023-05-01T09:13:53.843Z,13.73
2023-05-01T09:19:57.547Z,12.68
2023-05-01T09:26:01.425Z,11.25
2023-05-01T09:32:15.182Z,11.20
2023-05-01T09:38:22.792Z,13.93
2023-05-01T09:44:26.924Z,11.52
2023-05-01T09:50:32.561Z,12.00
2023-05-01T09:56:36.095Z,13.85
2023-05-01T10:02:39.913Z,14.20
2023-05-01T10:08:48.674Z,15.23
2023-05-01T10:14:53.620Z,19.70
2023-05-01T10:20:57.108Z,17.08
2023-05-01T10:27:03.412Z,17.40
2023-05-01T10:33:07.696Z,14.68
2023-05-01T10:39:31.225Z,14.80
2023-05-01T10:45:36.451Z,13.52
2023-05-01T10:51:59.463Z,15.18
2023-05-01T10:58:03.857Z,13.48
2023-05-01T11:04:10.634Z,15.73
2023-05-01T11:10:27.401Z,14.13
2023-05-01T11:16:46.367Z,15.95
2023-05-01T11:22:52.281Z,15.60
2023-05-01T11:28:56.512Z,14.02
2023-05-01T11:35:00.292Z,12.90
2023-05-01T11:41:06.156Z,15.77
2023-05-01T11:47:10.010Z,13.43
2023-05-01T11:53:15.950Z,13.43
2023-05-01T11:59:21.091Z,13.43
2023-05-01T12:05:25.171Z,14.40
2023-05-01T12:11:28.809Z,17.98
2023-05-01T12:17:33.895Z,13.80
2023-05-01T12:23:38.563Z,17.38
2023-05-01T12:29:42.261Z,14.55
2023-05-01T12:35:48.808Z,15.80
2023-05-01T12:41:53.168Z,17.23
2023-05-01T12:47:56.646Z,19.17
2023-05-01T12:54:01.500Z,15.65
2023-05-01T13:00:06.567Z,14.05
2023-05-01T13:06:10.195Z,15.13
2023-05-01T13:12:15.142Z,12.23
2023-05-01T13:18:18.565Z,13.57
2023-05-01T13:24:22.356Z,14.93
2023-05-01T13:30:34.774Z,10.27
2023-05-01T13:36:38.404Z,8.98
2023-05-01T13:42:43.102Z,8.20
2023-05-01T13:48:48.304Z,8.57
2023-05-01T13:54:58.056Z,11.10
2023-05-01T14:01:02.079Z,9.18
2023-05-01T14:07:07.114Z,10.55
2023-05-01T14:13:10.595Z,8.07
2023-05-01T14:19:17.410Z,9.77
2023-05-01T14:25:26.675Z,8.05
2023-05-01T14:31:31.997Z,10.25
2023-05-01T14:37:35.419Z,8.13
2023-05-01T14:43:42.912Z,12.45
2023-05-01T14:49:46.309Z,10.00
2023-05-01T14:55:52.656Z,12.63
2023-05-01T15:01:57.519Z,9.38
2023-05-01T15:08:01.653Z,9.32
2023-05-01T15:14:05.967Z,10.02
2023-05-01T15:20:12.194Z,7.55
2023-05-01T15:26:16.098Z,6.10
2023-05-01T15:32:19.635Z,6.97
2023-05-01T15:38:25.317Z,5.45
2023-05-01T15:44:28.825Z,9.30
2023-05-01T15:50:32.234Z,6.93
2023-05-01T15:56:37.707Z,6.88
2023-05-01T16:02:41.308Z,6.10
2023-05-01T16:08:45.005Z,6.68
2023-05-01T16:14:50.183Z,5.55
2023-05-01T16:20:54.781Z,9.93
2023-05-01T16:26:58.387Z,8.60
2023-05-01T16:33:05.261Z,10.00
2023-05-01T16:39:10.813Z,9.00
2023-05-01T16:45:14.444Z,9.98
2023-05-01T16:51:20.087Z,7.00
2023-05-01T16:57:23.838Z,6.70
2023-05-01T17:03:27.651Z,6.35
2023-05-01T17:09:32.460Z,5.93
2023-05-01T17:15:35.876Z,8.13
2023-05-01T17:21:39.297Z,6.75
2023-05-01T17:27:44.111Z,4.57
2023-05-01T17:33:48.324Z,4.85
2023-05-01T17:39:51.833Z,5.30
2023-05-01T17:45:56.676Z,4.85
2023-05-01T17:52:00.139Z,5.15
2023-05-01T17:58:03.588Z,8.35
2023-05-01T18:04:09.515Z,6.15
2023-05-01T18:10:13.485Z,7.13
2023-05-01T18:16:17.444Z,8.52
2023-05-01T18:22:22.528Z,5.70
2023-05-01T18:28:26.110Z,6.15
2023-05-01T18:34:29.491Z,7.47
2023-05-01T18:40:34.353Z,7.60
2023-05-01T18:46:37.803Z,10.88
2023-05-01T18:52:42.252Z,10.18
2023-05-01T18:58:47.169Z,13.48
2023-05-01T19:04:57.239Z,11.43
2023-05-01T19:11:01.190Z,8.63
2023-05-01T19:17:06.579Z,10.68
2023-05-01T19:23:10.131Z,9.95
2023-05-01T19:29:15.161Z,11.18
2023-05-01T19:35:20.100Z,9.07
2023-05-01T19:41:23.529Z,7.60
2023-05-01T19:47:26.998Z,10.45
2023-05-01T19:53:32.255Z,9.95
2023-05-01T19:59:38.873Z,10.82
2023-05-01T20:05:43.088Z,12.57
2023-05-01T20:11:47.840Z,9.63
2023-05-01T20:17:51.455Z,12.57
2023-05-01T20:23:55.350Z,9.05
2023-05-01T20:30:00.683Z,9.90
2023-05-01T20:36:04.289Z,10.70
2023-05-01T20:42:07.811Z,10.57
2023-05-01T20:48:12.783Z,9.05
2023-05-01T20:54:16.360Z,10.13
2023-05-01T21:00:20.085Z,12.15
2023-05-01T21:06:25.033Z,10.38
2023-05-01T21:12:30.177Z,11.55
2023-05-01T21:18:35.152Z,12.30
2023-05-01T21:24:41.189Z,9.70
2023-05-01T21:30:44.957Z,10.00
2023-05-01T21:36:49.339Z,9.82
2023-05-01T21:42:54.740Z,15.60
2023-05-01T21:48:58.194Z,9.32
2023-05-01T21:55:03.334Z,13.32
2023-05-01T22:01:09.498Z,13.48
2023-05-01T22:07:13.085Z,11.98
2023-05-01T22:13:16.504Z,11.32
2023-05-01T22:19:21.364Z,10.80
2023-05-01T22:25:24.759Z,12.48
2023-05-01T22:31:28.202Z,12.52
2023-05-01T22:37:32.951Z,13.98
2023-05-01T22:43:36.470Z,15.27
2023-05-01T22:49:40.031Z,13.48
2023-05-01T22:55:44.910Z,15.45
2023-05-01T23:01:48.388Z,18.80
2023-05-01T23:07:52.002Z,15.32
2023-05-01T23:13:56.794Z,13.75
2023-05-01T23:20:00.628Z,11.82
2023-05-01T23:26:04.256Z,16.13
2023-05-01T23:32:11.284Z,14.35
2023-05-01T23:38:14.940Z,18.40
2023-05-01T23:44:18.379Z,16.83
2023-05-01T23:50:25.406Z,16.02
2023-05-01T23:56:28.915Z,18.92
